Marchen Maersk — OUIY2 — position and weather

sailwx.info

Track history (hours):
 
Tides and Currents Weather Stations Pressure Air Temp Water Temp Dewpoint Dewpoint Depression Visibility Wind Speed Wind Dir Waves Ship Positions

Marchen Maersk

Last reported at 2017-Oct-23 15:51 UTC. Time now 2017-Nov-21 02:46 UTC.
Position N 38°13' W 126°41'.
Warning: this ship's position is 28 days out of date.

Length 367 m; draft 11.2 m.

Type: Ship (hazmat cat A). MMSI: 220594000.

Date/timePositionNaut miles runAvg speedWind from/ knotsBaromVisibWave heightAir tempDewpointWater temp
2017-Oct-23 15:51N 38°13' W 126°41'617.7
2017-Oct-23 15:30N 38°13' W 126°33'1817.9
2017-Oct-23 14:29N 38°13' W 126°10'918.8
2017-Oct-23 14:00N 38°13' W 125°58'4418.1
2017-Oct-23 11:34N 38°11' W 125°02'218.2
2017-Oct-23 11:29N 38°11' W 125°00'917.5
2017-Oct-23 10:56N 38°11' W 124°48'817.8
2017-Oct-23 10:30N 38°11' W 124°38'917.7
2017-Oct-23 10:00N 38°11' W 124°27'917.3
2017-Oct-23 09:30N 38°11' W 124°16'917.2
2017-Oct-23 09:00N 38°11' W 124°05'917.8
2017-Oct-23 08:30N 38°10' W 123°54'917.7
2017-Oct-23 08:00N 38°10' W 123°43'917.6
2017-Oct-23 07:30N 38°10' W 123°31'816.1
2017-Oct-23 07:01N 38°10' W 123°21'5 9.6
2017-Oct-23 06:31N 38°06' W 123°17'5 9.1
2017-Oct-23 06:00N 38°03' W 123°13'5 9.5
2017-Oct-23 05:31N 37°59' W 123°09'5 9.9
2017-Oct-23 05:00N 37°56' W 123°04'5 9.6
2017-Oct-23 04:31N 37°54' W 122°59'5 9.7
2017-Oct-23 04:01N 37°52' W 122°53'5 9.8
2017-Oct-23 03:30N 37°49' W 122°48'5 9.6
2017-Oct-23 03:01N 37°46' W 122°43'510.3
2017-Oct-23 02:30N 37°47' W 122°36'917.3
2017-Oct-23 02:01N 37°50' W 122°27'611.9
2017-Oct-23 01:30N 37°48' W 122°20'1 1.9
2017-Oct-23 00:59N 37°48' W 122°19'0 0.0
2017-Oct-23 00:29N 37°48' W 122°19'0 0.0
2017-Oct-22 23:59N 37°48' W 122°19'0 0.0
2017-Oct-22 23:29N 37°48' W 122°19'0 0.0
2017-Oct-22 22:59N 37°48' W 122°19'0 0.0
2017-Oct-22 22:29N 37°48' W 122°19'0 0.0
2017-Oct-22 21:59N 37°48' W 122°19'0 0.0
2017-Oct-22 21:29N 37°48' W 122°19'0 0.0
2017-Oct-22 20:59N 37°48' W 122°19'0 0.0
2017-Oct-22 20:29N 37°48' W 122°19'0 0.0
2017-Oct-22 19:59N 37°48' W 122°19'0 0.0
2017-Oct-22 19:29N 37°48' W 122°19'0 0.0
2017-Oct-22 18:59N 37°48' W 122°19'0 0.0
2017-Oct-22 18:29N 37°48' W 122°19'0 0.0
2017-Oct-22 17:59N 37°48' W 122°19'0 0.0
2017-Oct-22 17:29N 37°48' W 122°19'0 0.0
2017-Oct-22 16:59N 37°48' W 122°19'0 0.0
2017-Oct-22 16:29N 37°48' W 122°19'0 0.0
2017-Oct-22 15:59N 37°48' W 122°19'0 0.0
2017-Oct-22 15:29N 37°48' W 122°19'0 0.0
2017-Oct-22 14:59N 37°48' W 122°19'0 0.0
2017-Oct-22 14:29N 37°48' W 122°19'0 0.0
2017-Oct-22 13:59N 37°48' W 122°19'0 0.0
2017-Oct-22 13:29N 37°48' W 122°19'0 0.0
2017-Oct-22 12:59N 37°48' W 122°19'0 0.0
2017-Oct-22 12:29N 37°48' W 122°19'0 0.0
2017-Oct-22 11:59N 37°48' W 122°19'0 0.0
2017-Oct-22 11:29N 37°48' W 122°19'0 0.0
2017-Oct-22 10:59N 37°48' W 122°19'0 0.0
2017-Oct-22 10:29N 37°48' W 122°19'0 0.0
2017-Oct-22 09:59N 37°48' W 122°19'0 0.0
2017-Oct-22 09:29N 37°48' W 122°19'0 0.0
2017-Oct-22 08:59N 37°48' W 122°19'0 0.0
2017-Oct-22 08:29N 37°48' W 122°19'0 0.0
2017-Oct-22 07:59N 37°48' W 122°19'0 0.0
2017-Oct-22 07:29N 37°48' W 122°19'0 0.0
2017-Oct-22 06:59N 37°48' W 122°19'0 0.0
2017-Oct-22 06:29N 37°48' W 122°19'0 0.0
2017-Oct-22 05:59N 37°48' W 122°19'0 0.0
2017-Oct-22 05:29N 37°48' W 122°19'0 0.0
2017-Oct-22 04:59N 37°48' W 122°19'0 0.0
2017-Oct-22 04:29N 37°48' W 122°19'0 0.0
2017-Oct-22 03:59N 37°48' W 122°19'0 0.0
2017-Oct-22 03:29N 37°48' W 122°19'0 0.0
2017-Oct-22 03:00N 37°48' W 122°19'1 1.2
2017-Oct-22 02:30N 37°48' W 122°18'0 0.3
2017-Oct-22 02:00N 37°48' W 122°18'2 3.6
2017-Oct-22 01:31N 37°48' W 122°20'2 4.1
2017-Oct-22 00:59N 37°46' W 122°22'0 0.2
2017-Oct-22 00:29N 37°46' W 122°22'0 0.0
2017-Oct-21 23:59N 37°46' W 122°22'0 0.0
2017-Oct-21 23:29N 37°46' W 122°22'0 0.0
2017-Oct-21 22:59N 37°46' W 122°22'0 0.1
2017-Oct-21 22:29N 37°46' W 122°22'0 0.0
2017-Oct-21 21:59N 37°46' W 122°22'0 0.1
2017-Oct-21 21:29N 37°46' W 122°22'0 0.4
2017-Oct-21 20:59N 37°46' W 122°22'0 0.3
2017-Oct-21 20:29N 37°46' W 122°22'0 0.1
2017-Oct-21 19:59N 37°46' W 122°21'0 0.0
2017-Oct-21 19:29N 37°46' W 122°21'0 0.0
2017-Oct-21 18:59N 37°46' W 122°21'0 0.0
2017-Oct-21 18:29N 37°46' W 122°21'0 0.0
2017-Oct-21 17:59N 37°46' W 122°21'0 0.0
2017-Oct-21 17:29N 37°46' W 122°21'0 0.0
2017-Oct-21 16:59N 37°46' W 122°21'0 0.0
2017-Oct-21 16:30N 37°46' W 122°21'0 0.1
2017-Oct-21 15:59N 37°46' W 122°22'0 0.3
2017-Oct-21 15:29N 37°46' W 122°22'0 0.3
2017-Oct-21 14:59N 37°46' W 122°22'0 0.1
2017-Oct-21 13:59N 37°46' W 122°22'0 0.0
2017-Oct-21 13:29N 37°46' W 122°22'0 0.1
2017-Oct-21 12:59N 37°46' W 122°22'0 0.1
2017-Oct-21 12:29N 37°46' W 122°22'0 0.0
2017-Oct-21 11:59N 37°46' W 122°22'0 0.4
2017-Oct-21 11:30N 37°47' W 122°22'3 6.9
2017-Oct-21 11:00N 37°49' W 122°25'713.4
2017-Oct-21 10:30N 37°47' W 122°33'611.7
2017-Oct-21 10:01N 37°45' W 122°40'5 9.2
2017-Oct-21 09:31N 37°40' W 122°40'4 8.5
2017-Oct-21 09:01N 37°36' W 122°40'4 8.7
2017-Oct-21 08:30N 37°32' W 122°40'510.4
2017-Oct-21 08:01N 37°27' W 122°40'5 9.8
2017-Oct-21 07:31N 37°22' W 122°39'5 9.5
2017-Oct-21 07:00N 37°17' W 122°39'4 8.9
2017-Oct-21 06:31N 37°12' W 122°39'5 9.6
2017-Oct-21 06:01N 37°08' W 122°38'5 9.8
2017-Oct-21 05:31N 37°03' W 122°36'5 9.7
2017-Oct-21 05:00N 36°59' W 122°34'5 9.4
2017-Oct-21 04:27N 36°54' W 122°32'5 9.4
2017-Oct-21 03:57N 36°49' W 122°30'5 9.7
2017-Oct-21 03:29N 36°45' W 122°28'12810.8
2017-Oct-20 15:42N 34°53' W 121°12'313.9
2017-Oct-20 15:30N 34°51' W 121°10'714.3
2017-Oct-20 15:00N 34°44' W 121°06'714.5
2017-Oct-20 14:30N 34°38' W 121°01'1414.3
2017-Oct-20 13:30N 34°26' W 120°51'714.4
2017-Oct-20 13:01N 34°25' W 120°43'815.1
2017-Oct-20 12:30N 34°23' W 120°34'715.3
2017-Oct-20 12:01N 34°21' W 120°25'815.6
2017-Oct-20 11:30N 34°18' W 120°16'815.2
2017-Oct-20 11:00N 34°16' W 120°07'815.0
2017-Oct-20 10:29N 34°14' W 119°58'714.7
2017-Oct-20 10:00N 34°12' W 119°50'714.5
2017-Oct-20 09:29N 34°11' W 119°41'814.1
2017-Oct-20 08:57N 34°09' W 119°32'613.9
2017-Oct-20 08:30N 34°07' W 119°25'713.9
2017-Oct-20 08:00N 34°05' W 119°17'713.9
2017-Oct-20 07:30N 34°02' W 119°10'713.8
2017-Oct-20 07:00N 33°58' W 119°02'611.2
2017-Oct-20 06:30N 33°55' W 118°56'611.3
2017-Oct-20 06:00N 33°53' W 118°50'611.4
2017-Oct-20 05:30N 33°50' W 118°45'610.8
2017-Oct-20 04:59N 33°47' W 118°39'511.2
2017-Oct-20 04:30N 33°44' W 118°33'711.3
2017-Oct-20 03:53N 33°41' W 118°26'411.2
2017-Oct-20 03:29N 33°39' W 118°21'510.9
2017-Oct-20 03:00N 33°38' W 118°15'510.0
2017-Oct-20 02:30N 33°42' W 118°11'3 6.7
2017-Oct-20 02:00N 33°45' W 118°13'1 1.4
2017-Oct-20 01:27N 33°45' W 118°14'0 0.0
2017-Oct-20 00:57N 33°45' W 118°14'0 0.0
2017-Oct-20 00:27N 33°45' W 118°14'0 0.0
2017-Oct-19 23:57N 33°45' W 118°14'0 0.0
2017-Oct-19 23:15N 33°45' W 118°14'0 0.0
2017-Oct-19 22:57N 33°45' W 118°14'0 0.0
2017-Oct-19 22:27N 33°45' W 118°14'0 0.0
2017-Oct-19 21:57N 33°45' W 118°14'0 0.0
2017-Oct-19 21:27N 33°45' W 118°14'0 0.0
2017-Oct-19 20:57N 33°45' W 118°14'0 0.0
2017-Oct-19 20:09N 33°45' W 118°14'0 0.0
2017-Oct-19 19:57N 33°45' W 118°14'0 0.0
2017-Oct-19 19:27N 33°45' W 118°14'0 0.0
2017-Oct-19 18:57N 33°45' W 118°14'0 0.0
2017-Oct-19 18:27N 33°45' W 118°14'0 0.0
2017-Oct-19 17:57N 33°45' W 118°14'0 0.0
2017-Oct-19 17:09N 33°45' W 118°14'0 0.0
2017-Oct-19 16:57N 33°45' W 118°14'0 0.0
2017-Oct-19 16:15N 33°45' W 118°14'0 0.0
2017-Oct-19 15:57N 33°45' W 118°14'0 0.0
2017-Oct-19 15:27N 33°45' W 118°14'0 0.0
2017-Oct-19 14:09N 33°45' W 118°14'0 0.0
2017-Oct-19 13:03N 33°45' W 118°14'0 0.0
2017-Oct-19 12:39N 33°45' W 118°14'0 0.0
2017-Oct-19 11:48N 33°45' W 118°14'0 0.0
2017-Oct-19 11:18N 33°45' W 118°14'0 0.0
2017-Oct-19 11:00N 33°45' W 118°14'0 0.0
2017-Oct-19 10:27N 33°45' W 118°14'0 0.0
2017-Oct-19 09:57N 33°45' W 118°14'0 0.0
2017-Oct-19 09:27N 33°45' W 118°14'0 0.0
2017-Oct-19 08:51N 33°45' W 118°14'0 0.0
2017-Oct-19 08:27N 33°45' W 118°14'0 0.0
2017-Oct-19 07:57N 33°45' W 118°14'0 0.0
2017-Oct-19 07:27N 33°45' W 118°14'0 0.0
2017-Oct-19 07:00N 33°45' W 118°14'0 0.0
2017-Oct-19 06:12N 33°45' W 118°14'0 0.0
2017-Oct-19 05:51N 33°45' W 118°14'0 0.0
2017-Oct-19 05:27N 33°45' W 118°14'0 0.0
2017-Oct-19 04:57N 33°45' W 118°14'0 0.0
2017-Oct-19 04:27N 33°45' W 118°14'0 0.0
2017-Oct-19 04:00N 33°45' W 118°14'0 0.0
2017-Oct-19 03:24N 33°45' W 118°14'0 0.0
2017-Oct-19 03:00N 33°45' W 118°14'0 0.0
2017-Oct-19 02:30N 33°45' W 118°14'0 0.0
2017-Oct-19 02:00N 33°45' W 118°14'0 0.0
2017-Oct-19 01:27N 33°45' W 118°14'0 0.0
2017-Oct-19 01:00N 33°45' W 118°14'0 0.0
2017-Oct-19 00:30N 33°45' W 118°14'0 0.0
2017-Oct-19 00:00N 33°45' W 118°14'0 0.0
2017-Oct-18 23:27N 33°45' W 118°14'0 0.0
2017-Oct-18 22:57N 33°45' W 118°14'0 0.0
2017-Oct-18 22:30N 33°45' W 118°14'0 0.0
2017-Oct-18 22:00N 33°45' W 118°14'0 0.0
2017-Oct-18 21:30N 33°45' W 118°14'0 0.0
2017-Oct-18 21:00N 33°45' W 118°14'0 0.0
2017-Oct-18 20:30N 33°45' W 118°14'0 0.0
2017-Oct-18 19:57N 33°45' W 118°14'0 0.0
2017-Oct-18 19:27N 33°45' W 118°14'0 0.0
2017-Oct-18 18:57N 33°45' W 118°14'0 0.0
2017-Oct-18 18:21N 33°45' W 118°14'0 0.0
2017-Oct-18 17:57N 33°45' W 118°14'0 0.0
2017-Oct-18 17:27N 33°45' W 118°14'0 0.0
2017-Oct-18 16:51N 33°45' W 118°14'0 0.0
2017-Oct-18 16:21N 33°45' W 118°14'0 0.0
2017-Oct-18 15:51N 33°45' W 118°14'0 0.0
2017-Oct-18 15:27N 33°45' W 118°14'0 0.0
2017-Oct-18 14:57N 33°45' W 118°14'0 0.0
2017-Oct-18 13:57N 33°45' W 118°14'0 0.0
2017-Oct-18 13:27N 33°45' W 118°14'0 0.0
2017-Oct-18 12:57N 33°45' W 118°14'0 0.0
2017-Oct-18 12:21N 33°45' W 118°14'0 0.0
2017-Oct-18 11:57N 33°45' W 118°14'0 0.0
2017-Oct-18 11:15N 33°45' W 118°14'0 0.0
2017-Oct-18 11:00N 33°45' W 118°14'0 0.0
2017-Oct-18 10:30N 33°45' W 118°14'0 0.0
2017-Oct-18 09:57N 33°45' W 118°14'0 0.0
2017-Oct-18 09:30N 33°45' W 118°14'0 0.0
2017-Oct-18 09:00N 33°45' W 118°14'0 0.0
2017-Oct-18 08:27N 33°45' W 118°14'0 0.0
2017-Oct-18 08:00N 33°45' W 118°14'0 0.0
2017-Oct-18 07:27N 33°45' W 118°14'0 0.0
2017-Oct-18 07:00N 33°45' W 118°14'0 0.0
2017-Oct-18 06:30N 33°45' W 118°14'0 0.0
2017-Oct-18 06:00N 33°45' W 118°14'0 0.0
2017-Oct-18 05:30N 33°45' W 118°14'0 0.0
2017-Oct-18 05:00N 33°45' W 118°14'0 0.0
2017-Oct-18 04:18N 33°45' W 118°14'0 0.0
2017-Oct-18 03:57N 33°45' W 118°14'0 0.0
2017-Oct-18 03:27N 33°45' W 118°14'0 0.0
2017-Oct-18 02:33N 33°45' W 118°14'0 0.0
2017-Oct-18 02:15N 33°45' W 118°14'0 0.0
2017-Oct-18 01:54N 33°45' W 118°14'0 0.0
2017-Oct-18 01:27N 33°45' W 118°14'0 0.0
2017-Oct-18 00:57N 33°45' W 118°14'0 0.0
2017-Oct-18 00:27N 33°45' W 118°14'0 0.0
2017-Oct-17 23:48N 33°45' W 118°14'0 0.0
2017-Oct-17 23:27N 33°45' W 118°14'0 0.0
2017-Oct-17 22:57N 33°45' W 118°14'0 0.0
2017-Oct-17 22:27N 33°45' W 118°14'0 0.0
2017-Oct-17 21:57N 33°45' W 118°14'0 0.0
2017-Oct-17 21:27N 33°45' W 118°14'0 0.0
2017-Oct-17 20:57N 33°45' W 118°14'0 0.0
2017-Oct-17 20:27N 33°45' W 118°14'0 0.0
2017-Oct-17 19:57N 33°45' W 118°14'0 0.0
2017-Oct-17 19:27N 33°45' W 118°14'0 0.0
2017-Oct-17 18:57N 33°45' W 118°14'0 0.0
2017-Oct-17 18:27N 33°45' W 118°14'0 0.0
2017-Oct-17 17:57N 33°45' W 118°14'0 0.0
2017-Oct-17 17:27N 33°45' W 118°14'0 0.0
2017-Oct-17 16:57N 33°45' W 118°14'0 0.0
2017-Oct-17 16:27N 33°45' W 118°14'0 0.0
2017-Oct-17 15:57N 33°45' W 118°14'0 0.0
2017-Oct-17 15:03N 33°45' W 118°14'0 0.1
2017-Oct-17 14:57N 33°45' W 118°14'0 0.0
2017-Oct-17 12:57N 33°45' W 118°14'0 0.0
2017-Oct-17 12:27N 33°45' W 118°14'0 0.0
2017-Oct-17 12:00N 33°45' W 118°14'0 0.0
2017-Oct-17 11:21N 33°45' W 118°14'0 0.0
2017-Oct-17 10:45N 33°45' W 118°14'0 0.0
2017-Oct-17 10:21N 33°45' W 118°14'0 0.0
2017-Oct-17 09:24N 33°45' W 118°14'0 0.0
2017-Oct-17 08:39N 33°45' W 118°14'0 0.0
2017-Oct-17 08:30N 33°45' W 118°14'0 0.0
2017-Oct-17 07:54N 33°45' W 118°14'0 0.0
2017-Oct-17 07:27N 33°45' W 118°14'0 0.0
2017-Oct-17 06:57N 33°45' W 118°14'0 0.0
2017-Oct-17 06:27N 33°45' W 118°14'0 0.0
2017-Oct-17 05:57N 33°45' W 118°14'0 0.0
2017-Oct-17 05:30N 33°45' W 118°14'0 0.0
2017-Oct-17 04:54N 33°45' W 118°14'0 0.0
2017-Oct-17 04:27N 33°45' W 118°14'0 0.0
2017-Oct-17 03:57N 33°45' W 118°14'0 0.0
2017-Oct-17 03:15N 33°45' W 118°14'0 0.0
2017-Oct-17 02:57N 33°45' W 118°14'0 0.0
2017-Oct-17 02:27N 33°45' W 118°14'0 0.0
2017-Oct-17 01:51N 33°45' W 118°14'0 0.0
2017-Oct-17 00:39N 33°45' W 118°14'0 0.0
2017-Oct-17 00:21N 33°45' W 118°14'0 0.0
2017-Oct-16 23:57N 33°45' W 118°14'0 0.0
2017-Oct-16 23:15N 33°45' W 118°14'0 0.0
2017-Oct-16 22:57N 33°45' W 118°14'0 0.0
2017-Oct-16 22:27N 33°45' W 118°14'0 0.0
2017-Oct-16 21:57N 33°45' W 118°14'0 0.0
2017-Oct-16 21:27N 33°45' W 118°14'0 0.0
2017-Oct-16 20:51N 33°45' W 118°14'0 0.0
2017-Oct-16 20:21N 33°45' W 118°14'0 0.0
2017-Oct-16 19:57N 33°45' W 118°14'0 0.0
2017-Oct-16 19:15N 33°45' W 118°14'0 0.0
2017-Oct-16 18:57N 33°45' W 118°14'0 0.0
2017-Oct-16 18:27N 33°45' W 118°14'0 0.0
2017-Oct-16 17:57N 33°45' W 118°14'0 0.0
2017-Oct-16 17:03N 33°45' W 118°14'0 0.0
2017-Oct-16 16:57N 33°45' W 118°14'0 0.0
2017-Oct-16 16:27N 33°45' W 118°14'0 0.0
2017-Oct-16 16:00N 33°45' W 118°14'0 0.0
2017-Oct-16 15:30N 33°45' W 118°14'0 0.0
2017-Oct-16 14:59N 33°45' W 118°14'0 0.0
2017-Oct-16 14:29N 33°45' W 118°14'0 0.0
2017-Oct-16 13:30N 33°45' W 118°14'0 0.0
2017-Oct-16 12:59N 33°45' W 118°14'0 0.0
2017-Oct-16 12:30N 33°45' W 118°14'0 0.0
2017-Oct-16 12:00N 33°45' W 118°14'0 0.0
2017-Oct-16 11:26N 33°45' W 118°14'0 0.1
2017-Oct-16 11:00N 33°45' W 118°14'2 3.2
2017-Oct-16 10:29N 33°44' W 118°13'5 7.6
2017-Oct-16 09:51N 33°40' W 118°11'2 6.6
2017-Oct-16 09:30N 33°38' W 118°13'510.5
2017-Oct-16 09:00N 33°36' W 118°19'611.2
2017-Oct-16 08:30N 33°38' W 118°25'611.6
2017-Oct-16 08:00N 33°41' W 118°31'611.3
2017-Oct-16 07:30N 33°44' W 118°37'611.2
2017-Oct-16 07:00N 33°46' W 118°43'611.1
2017-Oct-16 06:30N 33°49' W 118°49'611.2
2017-Oct-16 06:00N 33°52' W 118°54'611.3
2017-Oct-16 05:30N 33°55' W 119°00'611.1
2017-Oct-16 05:00N 33°58' W 119°06'510.9
2017-Oct-16 04:30N 34°00' W 119°12'611.2
2017-Oct-16 04:00N 34°03' W 119°18'714.7
2017-Oct-16 03:30N 34°05' W 119°27'919.3
2017-Oct-16 03:00N 34°07' W 119°38'1020.3
2017-Oct-16 02:30N 34°10' W 119°49'1020.6
2017-Oct-16 02:00N 34°13' W 120°02'1020.5
2017-Oct-16 01:30N 34°15' W 120°13'1120.7
2017-Oct-16 01:00N 34°18' W 120°26'1020.0
2017-Oct-16 00:30N 34°21' W 120°37'1020.0
2017-Oct-16 00:00N 34°23' W 120°49'1020.5
2017-Oct-15 23:30N 34°26' W 121°01'1019.9
2017-Oct-15 22:59N 34°26' W 121°13'1020.4
2017-Oct-15 22:30N 34°26' W 121°26'1020.3
2017-Oct-15 22:00N 34°26' W 121°38'6220.3
2017-Oct-15 18:57N 34°26' W 122°53'920.2
2017-Oct-15 18:30N 34°26' W 123°04'1020.6
2017-Oct-15 18:00N 34°26' W 123°16'1020.3
2017-Oct-15 17:30N 34°26' W 123°29'1120.6
2017-Oct-15 16:59N 34°26' W 123°41'4220.1
2017-Oct-15 14:53N 34°26' W 124°33'1719.6
2017-Oct-15 14:01N 34°26' W 124°54'1019.3
2017-Oct-15 13:30N 34°26' W 125°06'  
Track history (hours):
 
Tides and Currents Weather Stations Pressure Air Temp Water Temp Dewpoint Dewpoint Depression Visibility Wind Speed Wind Dir Waves Ship Positions

Marchen Maersk

Last reported at 2017-Oct-23 15:51 UTC. Time now 2017-Nov-21 02:46 UTC.
Position N 38°13' W 126°41'.
Warning: this ship's position is 28 days out of date.

Length 367 m; draft 11.2 m.

Type: Ship (hazmat cat A). MMSI: 220594000.

Date/timePositionNaut miles runAvg speedWind from/ knotsBaromVisibWave heightAir tempDewpointWater temp
2017-Oct-23 15:51N 38°13' W 126°41'617.7
2017-Oct-23 15:30N 38°13' W 126°33'1817.9
2017-Oct-23 14:29N 38°13' W 126°10'918.8
2017-Oct-23 14:00N 38°13' W 125°58'4418.1
2017-Oct-23 11:34N 38°11' W 125°02'218.2
2017-Oct-23 11:29N 38°11' W 125°00'917.5
2017-Oct-23 10:56N 38°11' W 124°48'817.8
2017-Oct-23 10:30N 38°11' W 124°38'917.7
2017-Oct-23 10:00N 38°11' W 124°27'917.3
2017-Oct-23 09:30N 38°11' W 124°16'917.2
2017-Oct-23 09:00N 38°11' W 124°05'917.8
2017-Oct-23 08:30N 38°10' W 123°54'917.7
2017-Oct-23 08:00N 38°10' W 123°43'917.6
2017-Oct-23 07:30N 38°10' W 123°31'816.1
2017-Oct-23 07:01N 38°10' W 123°21'5 9.6
2017-Oct-23 06:31N 38°06' W 123°17'5 9.1
2017-Oct-23 06:00N 38°03' W 123°13'5 9.5
2017-Oct-23 05:31N 37°59' W 123°09'5 9.9
2017-Oct-23 05:00N 37°56' W 123°04'5 9.6
2017-Oct-23 04:31N 37°54' W 122°59'5 9.7
2017-Oct-23 04:01N 37°52' W 122°53'5 9.8
2017-Oct-23 03:30N 37°49' W 122°48'5 9.6
2017-Oct-23 03:01N 37°46' W 122°43'510.3
2017-Oct-23 02:30N 37°47' W 122°36'917.3
2017-Oct-23 02:01N 37°50' W 122°27'611.9
2017-Oct-23 01:30N 37°48' W 122°20'1 1.9
2017-Oct-23 00:59N 37°48' W 122°19'0 0.0
2017-Oct-23 00:29N 37°48' W 122°19'0 0.0
2017-Oct-22 23:59N 37°48' W 122°19'0 0.0
2017-Oct-22 23:29N 37°48' W 122°19'0 0.0
2017-Oct-22 22:59N 37°48' W 122°19'0 0.0
2017-Oct-22 22:29N 37°48' W 122°19'0 0.0
2017-Oct-22 21:59N 37°48' W 122°19'0 0.0
2017-Oct-22 21:29N 37°48' W 122°19'0 0.0
2017-Oct-22 20:59N 37°48' W 122°19'0 0.0
2017-Oct-22 20:29N 37°48' W 122°19'0 0.0
2017-Oct-22 19:59N 37°48' W 122°19'0 0.0
2017-Oct-22 19:29N 37°48' W 122°19'0 0.0
2017-Oct-22 18:59N 37°48' W 122°19'0 0.0
2017-Oct-22 18:29N 37°48' W 122°19'0 0.0
2017-Oct-22 17:59N 37°48' W 122°19'0 0.0
2017-Oct-22 17:29N 37°48' W 122°19'0 0.0
2017-Oct-22 16:59N 37°48' W 122°19'0 0.0
2017-Oct-22 16:29N 37°48' W 122°19'0 0.0
2017-Oct-22 15:59N 37°48' W 122°19'0 0.0
2017-Oct-22 15:29N 37°48' W 122°19'0 0.0
2017-Oct-22 14:59N 37°48' W 122°19'0 0.0
2017-Oct-22 14:29N 37°48' W 122°19'0 0.0
2017-Oct-22 13:59N 37°48' W 122°19'0 0.0
2017-Oct-22 13:29N 37°48' W 122°19'0 0.0
2017-Oct-22 12:59N 37°48' W 122°19'0 0.0
2017-Oct-22 12:29N 37°48' W 122°19'0 0.0
2017-Oct-22 11:59N 37°48' W 122°19'0 0.0
2017-Oct-22 11:29N 37°48' W 122°19'0 0.0
2017-Oct-22 10:59N 37°48' W 122°19'0 0.0
2017-Oct-22 10:29N 37°48' W 122°19'0 0.0
2017-Oct-22 09:59N 37°48' W 122°19'0 0.0
2017-Oct-22 09:29N 37°48' W 122°19'0 0.0
2017-Oct-22 08:59N 37°48' W 122°19'0 0.0
2017-Oct-22 08:29N 37°48' W 122°19'0 0.0
2017-Oct-22 07:59N 37°48' W 122°19'0 0.0
2017-Oct-22 07:29N 37°48' W 122°19'0 0.0
2017-Oct-22 06:59N 37°48' W 122°19'0 0.0
2017-Oct-22 06:29N 37°48' W 122°19'0 0.0
2017-Oct-22 05:59N 37°48' W 122°19'0 0.0
2017-Oct-22 05:29N 37°48' W 122°19'0 0.0
2017-Oct-22 04:59N 37°48' W 122°19'0 0.0
2017-Oct-22 04:29N 37°48' W 122°19'0 0.0
2017-Oct-22 03:59N 37°48' W 122°19'0 0.0
2017-Oct-22 03:29N 37°48' W 122°19'0 0.0
2017-Oct-22 03:00N 37°48' W 122°19'1 1.2
2017-Oct-22 02:30N 37°48' W 122°18'0 0.3
2017-Oct-22 02:00N 37°48' W 122°18'2 3.6
2017-Oct-22 01:31N 37°48' W 122°20'2 4.1
2017-Oct-22 00:59N 37°46' W 122°22'0 0.2
2017-Oct-22 00:29N 37°46' W 122°22'0 0.0
2017-Oct-21 23:59N 37°46' W 122°22'0 0.0
2017-Oct-21 23:29N 37°46' W 122°22'0 0.0
2017-Oct-21 22:59N 37°46' W 122°22'0 0.1
2017-Oct-21 22:29N 37°46' W 122°22'0 0.0
2017-Oct-21 21:59N 37°46' W 122°22'0 0.1
2017-Oct-21 21:29N 37°46' W 122°22'0 0.4
2017-Oct-21 20:59N 37°46' W 122°22'0 0.3
2017-Oct-21 20:29N 37°46' W 122°22'0 0.1
2017-Oct-21 19:59N 37°46' W 122°21'0 0.0
2017-Oct-21 19:29N 37°46' W 122°21'0 0.0
2017-Oct-21 18:59N 37°46' W 122°21'0 0.0
2017-Oct-21 18:29N 37°46' W 122°21'0 0.0
2017-Oct-21 17:59N 37°46' W 122°21'0 0.0
2017-Oct-21 17:29N 37°46' W 122°21'0 0.0
2017-Oct-21 16:59N 37°46' W 122°21'0 0.0
2017-Oct-21 16:30N 37°46' W 122°21'0 0.1
2017-Oct-21 15:59N 37°46' W 122°22'0 0.3
2017-Oct-21 15:29N 37°46' W 122°22'0 0.3
2017-Oct-21 14:59N 37°46' W 122°22'0 0.1
2017-Oct-21 13:59N 37°46' W 122°22'0 0.0
2017-Oct-21 13:29N 37°46' W 122°22'0 0.1
2017-Oct-21 12:59N 37°46' W 122°22'0 0.1
2017-Oct-21 12:29N 37°46' W 122°22'0 0.0
2017-Oct-21 11:59N 37°46' W 122°22'0 0.4
2017-Oct-21 11:30N 37°47' W 122°22'3 6.9
2017-Oct-21 11:00N 37°49' W 122°25'713.4
2017-Oct-21 10:30N 37°47' W 122°33'611.7
2017-Oct-21 10:01N 37°45' W 122°40'5 9.2
2017-Oct-21 09:31N 37°40' W 122°40'4 8.5
2017-Oct-21 09:01N 37°36' W 122°40'4 8.7
2017-Oct-21 08:30N 37°32' W 122°40'510.4
2017-Oct-21 08:01N 37°27' W 122°40'5 9.8
2017-Oct-21 07:31N 37°22' W 122°39'5 9.5
2017-Oct-21 07:00N 37°17' W 122°39'4 8.9
2017-Oct-21 06:31N 37°12' W 122°39'5 9.6
2017-Oct-21 06:01N 37°08' W 122°38'5 9.8
2017-Oct-21 05:31N 37°03' W 122°36'5 9.7
2017-Oct-21 05:00N 36°59' W 122°34'5 9.4
2017-Oct-21 04:27N 36°54' W 122°32'5 9.4
2017-Oct-21 03:57N 36°49' W 122°30'5 9.7
2017-Oct-21 03:29N 36°45' W 122°28'12810.8
2017-Oct-20 15:42N 34°53' W 121°12'313.9
2017-Oct-20 15:30N 34°51' W 121°10'714.3
2017-Oct-20 15:00N 34°44' W 121°06'714.5
2017-Oct-20 14:30N 34°38' W 121°01'1414.3
2017-Oct-20 13:30N 34°26' W 120°51'714.4
2017-Oct-20 13:01N 34°25' W 120°43'815.1
2017-Oct-20 12:30N 34°23' W 120°34'715.3
2017-Oct-20 12:01N 34°21' W 120°25'815.6
2017-Oct-20 11:30N 34°18' W 120°16'815.2
2017-Oct-20 11:00N 34°16' W 120°07'815.0
2017-Oct-20 10:29N 34°14' W 119°58'714.7
2017-Oct-20 10:00N 34°12' W 119°50'714.5
2017-Oct-20 09:29N 34°11' W 119°41'814.1
2017-Oct-20 08:57N 34°09' W 119°32'613.9
2017-Oct-20 08:30N 34°07' W 119°25'713.9
2017-Oct-20 08:00N 34°05' W 119°17'713.9
2017-Oct-20 07:30N 34°02' W 119°10'713.8
2017-Oct-20 07:00N 33°58' W 119°02'611.2
2017-Oct-20 06:30N 33°55' W 118°56'611.3
2017-Oct-20 06:00N 33°53' W 118°50'611.4
2017-Oct-20 05:30N 33°50' W 118°45'610.8
2017-Oct-20 04:59N 33°47' W 118°39'511.2
2017-Oct-20 04:30N 33°44' W 118°33'711.3
2017-Oct-20 03:53N 33°41' W 118°26'411.2
2017-Oct-20 03:29N 33°39' W 118°21'510.9
2017-Oct-20 03:00N 33°38' W 118°15'510.0
2017-Oct-20 02:30N 33°42' W 118°11'3 6.7
2017-Oct-20 02:00N 33°45' W 118°13'1 1.4
2017-Oct-20 01:27N 33°45' W 118°14'0 0.0
2017-Oct-20 00:57N 33°45' W 118°14'0 0.0
2017-Oct-20 00:27N 33°45' W 118°14'0 0.0
2017-Oct-19 23:57N 33°45' W 118°14'0 0.0
2017-Oct-19 23:15N 33°45' W 118°14'0 0.0
2017-Oct-19 22:57N 33°45' W 118°14'0 0.0
2017-Oct-19 22:27N 33°45' W 118°14'0 0.0
2017-Oct-19 21:57N 33°45' W 118°14'0 0.0
2017-Oct-19 21:27N 33°45' W 118°14'0 0.0
2017-Oct-19 20:57N 33°45' W 118°14'0 0.0
2017-Oct-19 20:09N 33°45' W 118°14'0 0.0
2017-Oct-19 19:57N 33°45' W 118°14'0 0.0
2017-Oct-19 19:27N 33°45' W 118°14'0 0.0
2017-Oct-19 18:57N 33°45' W 118°14'0 0.0
2017-Oct-19 18:27N 33°45' W 118°14'0 0.0
2017-Oct-19 17:57N 33°45' W 118°14'0 0.0
2017-Oct-19 17:09N 33°45' W 118°14'0 0.0
2017-Oct-19 16:57N 33°45' W 118°14'0 0.0
2017-Oct-19 16:15N 33°45' W 118°14'0 0.0
2017-Oct-19 15:57N 33°45' W 118°14'0 0.0
2017-Oct-19 15:27N 33°45' W 118°14'0 0.0
2017-Oct-19 14:09N 33°45' W 118°14'0 0.0
2017-Oct-19 13:03N 33°45' W 118°14'0 0.0
2017-Oct-19 12:39N 33°45' W 118°14'0 0.0
2017-Oct-19 11:48N 33°45' W 118°14'0 0.0
2017-Oct-19 11:18N 33°45' W 118°14'0 0.0
2017-Oct-19 11:00N 33°45' W 118°14'0 0.0
2017-Oct-19 10:27N 33°45' W 118°14'0 0.0
2017-Oct-19 09:57N 33°45' W 118°14'0 0.0
2017-Oct-19 09:27N 33°45' W 118°14'0 0.0
2017-Oct-19 08:51N 33°45' W 118°14'0 0.0
2017-Oct-19 08:27N 33°45' W 118°14'0 0.0
2017-Oct-19 07:57N 33°45' W 118°14'0 0.0
2017-Oct-19 07:27N 33°45' W 118°14'0 0.0
2017-Oct-19 07:00N 33°45' W 118°14'0 0.0
2017-Oct-19 06:12N 33°45' W 118°14'0 0.0
2017-Oct-19 05:51N 33°45' W 118°14'0 0.0
2017-Oct-19 05:27N 33°45' W 118°14'0 0.0
2017-Oct-19 04:57N 33°45' W 118°14'0 0.0
2017-Oct-19 04:27N 33°45' W 118°14'0 0.0
2017-Oct-19 04:00N 33°45' W 118°14'0 0.0
2017-Oct-19 03:24N 33°45' W 118°14'0 0.0
2017-Oct-19 03:00N 33°45' W 118°14'0 0.0
2017-Oct-19 02:30N 33°45' W 118°14'0 0.0
2017-Oct-19 02:00N 33°45' W 118°14'0 0.0
2017-Oct-19 01:27N 33°45' W 118°14'0 0.0
2017-Oct-19 01:00N 33°45' W 118°14'0 0.0
2017-Oct-19 00:30N 33°45' W 118°14'0 0.0
2017-Oct-19 00:00N 33°45' W 118°14'0 0.0
2017-Oct-18 23:27N 33°45' W 118°14'0 0.0
2017-Oct-18 22:57N 33°45' W 118°14'0 0.0
2017-Oct-18 22:30N 33°45' W 118°14'0 0.0
2017-Oct-18 22:00N 33°45' W 118°14'0 0.0
2017-Oct-18 21:30N 33°45' W 118°14'0 0.0
2017-Oct-18 21:00N 33°45' W 118°14'0 0.0
2017-Oct-18 20:30N 33°45' W 118°14'0 0.0
2017-Oct-18 19:57N 33°45' W 118°14'0 0.0
2017-Oct-18 19:27N 33°45' W 118°14'0 0.0
2017-Oct-18 18:57N 33°45' W 118°14'0 0.0
2017-Oct-18 18:21N 33°45' W 118°14'0 0.0
2017-Oct-18 17:57N 33°45' W 118°14'0 0.0
2017-Oct-18 17:27N 33°45' W 118°14'0 0.0
2017-Oct-18 16:51N 33°45' W 118°14'0 0.0
2017-Oct-18 16:21N 33°45' W 118°14'0 0.0
2017-Oct-18 15:51N 33°45' W 118°14'0 0.0
2017-Oct-18 15:27N 33°45' W 118°14'0 0.0
2017-Oct-18 14:57N 33°45' W 118°14'0 0.0
2017-Oct-18 13:57N 33°45' W 118°14'0 0.0
2017-Oct-18 13:27N 33°45' W 118°14'0 0.0
2017-Oct-18 12:57N 33°45' W 118°14'0 0.0
2017-Oct-18 12:21N 33°45' W 118°14'0 0.0
2017-Oct-18 11:57N 33°45' W 118°14'0 0.0
2017-Oct-18 11:15N 33°45' W 118°14'0 0.0
2017-Oct-18 11:00N 33°45' W 118°14'0 0.0
2017-Oct-18 10:30N 33°45' W 118°14'0 0.0
2017-Oct-18 09:57N 33°45' W 118°14'0 0.0
2017-Oct-18 09:30N 33°45' W 118°14'0 0.0
2017-Oct-18 09:00N 33°45' W 118°14'0 0.0
2017-Oct-18 08:27N 33°45' W 118°14'0 0.0
2017-Oct-18 08:00N 33°45' W 118°14'0 0.0
2017-Oct-18 07:27N 33°45' W 118°14'0 0.0
2017-Oct-18 07:00N 33°45' W 118°14'0 0.0
2017-Oct-18 06:30N 33°45' W 118°14'0 0.0
2017-Oct-18 06:00N 33°45' W 118°14'0 0.0
2017-Oct-18 05:30N 33°45' W 118°14'0 0.0
2017-Oct-18 05:00N 33°45' W 118°14'0 0.0
2017-Oct-18 04:18N 33°45' W 118°14'0 0.0
2017-Oct-18 03:57N 33°45' W 118°14'0 0.0
2017-Oct-18 03:27N 33°45' W 118°14'0 0.0
2017-Oct-18 02:33N 33°45' W 118°14'0 0.0
2017-Oct-18 02:15N 33°45' W 118°14'0 0.0
2017-Oct-18 01:54N 33°45' W 118°14'0 0.0
2017-Oct-18 01:27N 33°45' W 118°14'0 0.0
2017-Oct-18 00:57N 33°45' W 118°14'0 0.0
2017-Oct-18 00:27N 33°45' W 118°14'0 0.0
2017-Oct-17 23:48N 33°45' W 118°14'0 0.0
2017-Oct-17 23:27N 33°45' W 118°14'0 0.0
2017-Oct-17 22:57N 33°45' W 118°14'0 0.0
2017-Oct-17 22:27N 33°45' W 118°14'0 0.0
2017-Oct-17 21:57N 33°45' W 118°14'0 0.0
2017-Oct-17 21:27N 33°45' W 118°14'0 0.0
2017-Oct-17 20:57N 33°45' W 118°14'0 0.0
2017-Oct-17 20:27N 33°45' W 118°14'0 0.0
2017-Oct-17 19:57N 33°45' W 118°14'0 0.0
2017-Oct-17 19:27N 33°45' W 118°14'0 0.0
2017-Oct-17 18:57N 33°45' W 118°14'0 0.0
2017-Oct-17 18:27N 33°45' W 118°14'0 0.0
2017-Oct-17 17:57N 33°45' W 118°14'0 0.0
2017-Oct-17 17:27N 33°45' W 118°14'0 0.0
2017-Oct-17 16:57N 33°45' W 118°14'0 0.0
2017-Oct-17 16:27N 33°45' W 118°14'0 0.0
2017-Oct-17 15:57N 33°45' W 118°14'0 0.0
2017-Oct-17 15:03N 33°45' W 118°14'0 0.1
2017-Oct-17 14:57N 33°45' W 118°14'0 0.0
2017-Oct-17 12:57N 33°45' W 118°14'0 0.0
2017-Oct-17 12:27N 33°45' W 118°14'0 0.0
2017-Oct-17 12:00N 33°45' W 118°14'0 0.0
2017-Oct-17 11:21N 33°45' W 118°14'0 0.0
2017-Oct-17 10:45N 33°45' W 118°14'0 0.0
2017-Oct-17 10:21N 33°45' W 118°14'0 0.0
2017-Oct-17 09:24N 33°45' W 118°14'0 0.0
2017-Oct-17 08:39N 33°45' W 118°14'0 0.0
2017-Oct-17 08:30N 33°45' W 118°14'0 0.0
2017-Oct-17 07:54N 33°45' W 118°14'0 0.0
2017-Oct-17 07:27N 33°45' W 118°14'0 0.0
2017-Oct-17 06:57N 33°45' W 118°14'0 0.0
2017-Oct-17 06:27N 33°45' W 118°14'0 0.0
2017-Oct-17 05:57N 33°45' W 118°14'0 0.0
2017-Oct-17 05:30N 33°45' W 118°14'0 0.0
2017-Oct-17 04:54N 33°45' W 118°14'0 0.0
2017-Oct-17 04:27N 33°45' W 118°14'0 0.0
2017-Oct-17 03:57N 33°45' W 118°14'0 0.0
2017-Oct-17 03:15N 33°45' W 118°14'0 0.0
2017-Oct-17 02:57N 33°45' W 118°14'0 0.0
2017-Oct-17 02:27N 33°45' W 118°14'0 0.0
2017-Oct-17 01:51N 33°45' W 118°14'0 0.0
2017-Oct-17 00:39N 33°45' W 118°14'0 0.0
2017-Oct-17 00:21N 33°45' W 118°14'0 0.0
2017-Oct-16 23:57N 33°45' W 118°14'0 0.0
2017-Oct-16 23:15N 33°45' W 118°14'0 0.0
2017-Oct-16 22:57N 33°45' W 118°14'0 0.0
2017-Oct-16 22:27N 33°45' W 118°14'0 0.0
2017-Oct-16 21:57N 33°45' W 118°14'0 0.0
2017-Oct-16 21:27N 33°45' W 118°14'0 0.0
2017-Oct-16 20:51N 33°45' W 118°14'0 0.0
2017-Oct-16 20:21N 33°45' W 118°14'0 0.0
2017-Oct-16 19:57N 33°45' W 118°14'0 0.0
2017-Oct-16 19:15N 33°45' W 118°14'0 0.0
2017-Oct-16 18:57N 33°45' W 118°14'0 0.0
2017-Oct-16 18:27N 33°45' W 118°14'0 0.0
2017-Oct-16 17:57N 33°45' W 118°14'0 0.0
2017-Oct-16 17:03N 33°45' W 118°14'0 0.0
2017-Oct-16 16:57N 33°45' W 118°14'0 0.0
2017-Oct-16 16:27N 33°45' W 118°14'0 0.0
2017-Oct-16 16:00N 33°45' W 118°14'0 0.0
2017-Oct-16 15:30N 33°45' W 118°14'0 0.0
2017-Oct-16 14:59N 33°45' W 118°14'0 0.0
2017-Oct-16 14:29N 33°45' W 118°14'0 0.0
2017-Oct-16 13:30N 33°45' W 118°14'0 0.0
2017-Oct-16 12:59N 33°45' W 118°14'0 0.0
2017-Oct-16 12:30N 33°45' W 118°14'0 0.0
2017-Oct-16 12:00N 33°45' W 118°14'0 0.0
2017-Oct-16 11:26N 33°45' W 118°14'0 0.1
2017-Oct-16 11:00N 33°45' W 118°14'2 3.2
2017-Oct-16 10:29N 33°44' W 118°13'5 7.6
2017-Oct-16 09:51N 33°40' W 118°11'2 6.6
2017-Oct-16 09:30N 33°38' W 118°13'510.5
2017-Oct-16 09:00N 33°36' W 118°19'611.2
2017-Oct-16 08:30N 33°38' W 118°25'611.6
2017-Oct-16 08:00N 33°41' W 118°31'611.3
2017-Oct-16 07:30N 33°44' W 118°37'611.2
2017-Oct-16 07:00N 33°46' W 118°43'611.1
2017-Oct-16 06:30N 33°49' W 118°49'611.2
2017-Oct-16 06:00N 33°52' W 118°54'611.3
2017-Oct-16 05:30N 33°55' W 119°00'611.1
2017-Oct-16 05:00N 33°58' W 119°06'510.9
2017-Oct-16 04:30N 34°00' W 119°12'611.2
2017-Oct-16 04:00N 34°03' W 119°18'714.7
2017-Oct-16 03:30N 34°05' W 119°27'919.3
2017-Oct-16 03:00N 34°07' W 119°38'1020.3
2017-Oct-16 02:30N 34°10' W 119°49'1020.6
2017-Oct-16 02:00N 34°13' W 120°02'1020.5
2017-Oct-16 01:30N 34°15' W 120°13'1120.7
2017-Oct-16 01:00N 34°18' W 120°26'1020.0
2017-Oct-16 00:30N 34°21' W 120°37'1020.0
2017-Oct-16 00:00N 34°23' W 120°49'1020.5
2017-Oct-15 23:30N 34°26' W 121°01'1019.9
2017-Oct-15 22:59N 34°26' W 121°13'1020.4
2017-Oct-15 22:30N 34°26' W 121°26'1020.3
2017-Oct-15 22:00N 34°26' W 121°38'6220.3
2017-Oct-15 18:57N 34°26' W 122°53'920.2
2017-Oct-15 18:30N 34°26' W 123°04'1020.6
2017-Oct-15 18:00N 34°26' W 123°16'1020.3
2017-Oct-15 17:30N 34°26' W 123°29'1120.6
2017-Oct-15 16:59N 34°26' W 123°41'4220.1
2017-Oct-15 14:53N 34°26' W 124°33'1719.6
2017-Oct-15 14:01N 34°26' W 124°54'1019.3
2017-Oct-15 13:30N 34°26' W 125°06'  

Dump ship's entire track history